sensor_id;sensor_type;location;lat;lon;timestamp;temperature;humidity
42037;DHT22;30340;52.004;5.908;2022-08-14T00:00:35;25.50;46.00
42037;DHT22;30340;52.004;5.908;2022-08-14T00:03:00;25.50;46.10
42037;DHT22;30340;52.004;5.908;2022-08-14T00:05:26;25.50;45.80
42037;DHT22;30340;52.004;5.908;2022-08-14T00:07:51;25.40;46.30
42037;DHT22;30340;52.004;5.908;2022-08-14T00:10:19;25.40;46.60
42037;DHT22;30340;52.004;5.908;2022-08-14T00:12:52;25.30;46.80
42037;DHT22;30340;52.004;5.908;2022-08-14T00:15:26;25.30;46.90
42037;DHT22;30340;52.004;5.908;2022-08-14T00:17:52;25.20;47.10
42037;DHT22;30340;52.004;5.908;2022-08-14T00:20:23;25.20;47.30
42037;DHT22;30340;52.004;5.908;2022-08-14T00:22:49;25.20;47.10
42037;DHT22;30340;52.004;5.908;2022-08-14T00:25:14;25.10;47.50
42037;DHT22;30340;52.004;5.908;2022-08-14T00:27:40;25.10;47.80
42037;DHT22;30340;52.004;5.908;2022-08-14T00:30:08;25.00;48.00
42037;DHT22;30340;52.004;5.908;2022-08-14T00:32:34;24.90;48.30
42037;DHT22;30340;52.004;5.908;2022-08-14T00:35:00;24.90;48.60
42037;DHT22;30340;52.004;5.908;2022-08-14T00:37:27;24.90;48.40
42037;DHT22;30340;52.004;5.908;2022-08-14T00:39:53;24.90;48.60
42037;DHT22;30340;52.004;5.908;2022-08-14T00:42:19;24.80;48.80
42037;DHT22;30340;52.004;5.908;2022-08-14T00:44:45;24.80;49.10
42037;DHT22;30340;52.004;5.908;2022-08-14T00:47:13;24.70;49.30
42037;DHT22;30340;52.004;5.908;2022-08-14T00:49:39;24.70;49.50
42037;DHT22;30340;52.004;5.908;2022-08-14T00:52:05;24.60;49.20
42037;DHT22;30340;52.004;5.908;2022-08-14T00:54:31;24.60;49.80
42037;DHT22;30340;52.004;5.908;2022-08-14T00:56:56;24.50;49.60
42037;DHT22;30340;52.004;5.908;2022-08-14T00:59:26;24.50;50.00
42037;DHT22;30340;52.004;5.908;2022-08-14T01:01:58;24.40;50.40
42037;DHT22;30340;52.004;5.908;2022-08-14T01:04:25;24.40;50.70
42037;DHT22;30340;52.004;5.908;2022-08-14T01:06:51;24.30;50.50
42037;DHT22;30340;52.004;5.908;2022-08-14T01:09:21;24.30;50.70
42037;DHT22;30340;52.004;5.908;2022-08-14T01:11:50;24.30;50.60
42037;DHT22;30340;52.004;5.908;2022-08-14T01:14:17;24.30;50.70
42037;DHT22;30340;52.004;5.908;2022-08-14T01:16:44;24.20;51.10
42037;DHT22;30340;52.004;5.908;2022-08-14T01:19:10;24.20;50.90
42037;DHT22;30340;52.004;5.908;2022-08-14T01:21:54;24.20;50.80
42037;DHT22;30340;52.004;5.908;2022-08-14T01:24:21;24.20;51.10
42037;DHT22;30340;52.004;5.908;2022-08-14T01:26:46;24.20;51.20
42037;DHT22;30340;52.004;5.908;2022-08-14T01:29:12;24.10;51.20
42037;DHT22;30340;52.004;5.908;2022-08-14T01:31:39;24.10;51.50
42037;DHT22;30340;52.004;5.908;2022-08-14T01:34:11;24.10;51.80
42037;DHT22;30340;52.004;5.908;2022-08-14T01:36:37;24.00;51.90
42037;DHT22;30340;52.004;5.908;2022-08-14T01:39:09;24.00;52.60
42037;DHT22;30340;52.004;5.908;2022-08-14T01:41:36;23.90;52.00
42037;DHT22;30340;52.004;5.908;2022-08-14T01:44:08;23.90;52.20
42037;DHT22;30340;52.004;5.908;2022-08-14T01:46:38;23.90;52.40
42037;DHT22;30340;52.004;5.908;2022-08-14T01:49:06;23.80;52.30
42037;DHT22;30340;52.004;5.908;2022-08-14T01:51:32;23.80;52.40
42037;DHT22;30340;52.004;5.908;2022-08-14T01:54:01;23.80;52.70
42037;DHT22;30340;52.004;5.908;2022-08-14T01:56:31;23.70;52.70
42037;DHT22;30340;52.004;5.908;2022-08-14T01:59:01;23.70;53.00
42037;DHT22;30340;52.004;5.908;2022-08-14T02:01:26;23.70;53.30
42037;DHT22;30340;52.004;5.908;2022-08-14T02:03:52;23.60;53.20
42037;DHT22;30340;52.004;5.908;2022-08-14T02:06:18;23.60;53.40
42037;DHT22;30340;52.004;5.908;2022-08-14T02:08:43;23.60;53.50
42037;DHT22;30340;52.004;5.908;2022-08-14T02:11:10;23.50;53.50
42037;DHT22;30340;52.004;5.908;2022-08-14T02:13:46;23.50;53.40
42037;DHT22;30340;52.004;5.908;2022-08-14T02:16:13;23.60;53.40
42037;DHT22;30340;52.004;5.908;2022-08-14T02:18:41;23.50;53.40
42037;DHT22;30340;52.004;5.908;2022-08-14T02:21:06;23.50;53.50
42037;DHT22;30340;52.004;5.908;2022-08-14T02:23:32;23.50;53.70
42037;DHT22;30340;52.004;5.908;2022-08-14T02:26:00;23.50;53.60
42037;DHT22;30340;52.004;5.908;2022-08-14T02:28:27;23.50;53.50
42037;DHT22;30340;52.004;5.908;2022-08-14T02:30:55;23.50;53.40
42037;DHT22;30340;52.004;5.908;2022-08-14T02:33:21;23.50;53.60
42037;DHT22;30340;52.004;5.908;2022-08-14T02:35:48;23.40;53.70
42037;DHT22;30340;52.004;5.908;2022-08-14T02:38:14;23.40;54.00
42037;DHT22;30340;52.004;5.908;2022-08-14T02:40:39;23.30;54.20
42037;DHT22;30340;52.004;5.908;2022-08-14T02:43:05;23.30;54.30
42037;DHT22;30340;52.004;5.908;2022-08-14T02:45:32;23.30;54.30
42037;DHT22;30340;52.004;5.908;2022-08-14T02:48:00;23.20;54.50
42037;DHT22;30340;52.004;5.908;2022-08-14T02:50:25;23.20;54.70
42037;DHT22;30340;52.004;5.908;2022-08-14T02:52:51;23.20;54.70
42037;DHT22;30340;52.004;5.908;2022-08-14T02:55:17;23.20;54.70
42037;DHT22;30340;52.004;5.908;2022-08-14T02:57:44;23.10;54.80
42037;DHT22;30340;52.004;5.908;2022-08-14T03:00:10;23.10;54.70
42037;DHT22;30340;52.004;5.908;2022-08-14T03:02:37;23.10;54.70
42037;DHT22;30340;52.004;5.908;2022-08-14T03:05:03;23.10;54.90
42037;DHT22;30340;52.004;5.908;2022-08-14T03:07:29;23.10;55.30
42037;DHT22;30340;52.004;5.908;2022-08-14T03:09:54;23.10;55.40
42037;DHT22;30340;52.004;5.908;2022-08-14T03:12:20;23.00;55.40
42037;DHT22;30340;52.004;5.908;2022-08-14T03:14:46;23.00;55.20
42037;DHT22;30340;52.004;5.908;2022-08-14T03:17:16;23.00;55.30
42037;DHT22;30340;52.004;5.908;2022-08-14T03:19:42;23.00;55.20
42037;DHT22;30340;52.004;5.908;2022-08-14T03:22:08;23.00;55.20
42037;DHT22;30340;52.004;5.908;2022-08-14T03:24:33;23.10;55.20
42037;DHT22;30340;52.004;5.908;2022-08-14T03:27:01;23.10;55.20
42037;DHT22;30340;52.004;5.908;2022-08-14T03:29:26;23.00;55.40
42037;DHT22;30340;52.004;5.908;2022-08-14T03:31:53;22.90;55.40
42037;DHT22;30340;52.004;5.908;2022-08-14T03:34:20;23.00;55.60
42037;DHT22;30340;52.004;5.908;2022-08-14T03:36:49;22.90;55.60
42037;DHT22;30340;52.004;5.908;2022-08-14T03:39:22;22.80;55.70
42037;DHT22;30340;52.004;5.908;2022-08-14T03:41:51;22.80;56.00
42037;DHT22;30340;52.004;5.908;2022-08-14T03:44:17;22.70;56.20
42037;DHT22;30340;52.004;5.908;2022-08-14T03:46:43;22.70;56.40
42037;DHT22;30340;52.004;5.908;2022-08-14T03:49:09;22.70;56.60
42037;DHT22;30340;52.004;5.908;2022-08-14T03:51:35;22.60;56.60
42037;DHT22;30340;52.004;5.908;2022-08-14T03:54:04;22.60;57.20
42037;DHT22;30340;52.004;5.908;2022-08-14T03:56:30;22.60;57.10
42037;DHT22;30340;52.004;5.908;2022-08-14T03:59:00;22.50;57.10
42037;DHT22;30340;52.004;5.908;2022-08-14T04:01:36;22.50;57.40
42037;DHT22;30340;52.004;5.908;2022-08-14T04:04:03;22.50;57.30
42037;DHT22;30340;52.004;5.908;2022-08-14T04:06:32;22.50;57.30
42037;DHT22;30340;52.004;5.908;2022-08-14T04:08:58;22.50;57.40
42037;DHT22;30340;52.004;5.908;2022-08-14T04:11:24;22.50;57.60
42037;DHT22;30340;52.004;5.908;2022-08-14T04:13:49;22.40;57.80
42037;DHT22;30340;52.004;5.908;2022-08-14T04:16:17;22.40;57.90
42037;DHT22;30340;52.004;5.908;2022-08-14T04:18:47;22.40;57.90
42037;DHT22;30340;52.004;5.908;2022-08-14T04:21:14;22.30;58.00
42037;DHT22;30340;52.004;5.908;2022-08-14T04:23:40;22.30;58.00
42037;DHT22;30340;52.004;5.908;2022-08-14T04:26:09;22.30;58.00
42037;DHT22;30340;52.004;5.908;2022-08-14T04:28:35;22.30;58.10
42037;DHT22;30340;52.004;5.908;2022-08-14T04:31:02;22.30;58.20
42037;DHT22;30340;52.004;5.908;2022-08-14T04:33:28;22.30;58.30
42037;DHT22;30340;52.004;5.908;2022-08-14T04:35:54;22.20;58.40
42037;DHT22;30340;52.004;5.908;2022-08-14T04:38:20;22.20;58.40
42037;DHT22;30340;52.004;5.908;2022-08-14T04:41:06;22.20;58.50
42037;DHT22;30340;52.004;5.908;2022-08-14T04:43:50;22.20;58.70
42037;DHT22;30340;52.004;5.908;2022-08-14T04:46:19;22.20;58.90
42037;DHT22;30340;52.004;5.908;2022-08-14T04:48:45;22.10;58.70
42037;DHT22;30340;52.004;5.908;2022-08-14T04:51:12;22.20;58.60
42037;DHT22;30340;52.004;5.908;2022-08-14T04:53:40;22.20;58.70
42037;DHT22;30340;52.004;5.908;2022-08-14T04:56:09;22.20;58.60
42037;DHT22;30340;52.004;5.908;2022-08-14T04:58:36;22.30;58.40
42037;DHT22;30340;52.004;5.908;2022-08-14T05:01:04;22.30;58.40
42037;DHT22;30340;52.004;5.908;2022-08-14T05:03:33;22.30;58.50
42037;DHT22;30340;52.004;5.908;2022-08-14T05:06:02;22.30;58.40
42037;DHT22;30340;52.004;5.908;2022-08-14T05:08:29;22.30;58.60
42037;DHT22;30340;52.004;5.908;2022-08-14T05:10:57;22.30;58.60
42037;DHT22;30340;52.004;5.908;2022-08-14T05:13:25;22.30;58.60
42037;DHT22;30340;52.004;5.908;2022-08-14T05:15:53;22.30;58.70
42037;DHT22;30340;52.004;5.908;2022-08-14T05:18:21;22.30;58.70
42037;DHT22;30340;52.004;5.908;2022-08-14T05:20:51;22.30;58.70
42037;DHT22;30340;52.004;5.908;2022-08-14T05:23:19;22.30;58.60
42037;DHT22;30340;52.004;5.908;2022-08-14T05:25:47;22.40;59.20
42037;DHT22;30340;52.004;5.908;2022-08-14T05:28:17;22.40;58.60
42037;DHT22;30340;52.004;5.908;2022-08-14T05:30:51;22.40;58.70
42037;DHT22;30340;52.004;5.908;2022-08-14T05:33:18;22.40;58.70
42037;DHT22;30340;52.004;5.908;2022-08-14T05:35:46;22.50;58.90
42037;DHT22;30340;52.004;5.908;2022-08-14T05:38:14;23.10;58.10
42037;DHT22;30340;52.004;5.908;2022-08-14T05:40:45;24.10;56.00
42037;DHT22;30340;52.004;5.908;2022-08-14T05:43:12;25.00;53.70
42037;DHT22;30340;52.004;5.908;2022-08-14T05:45:38;25.80;52.10
42037;DHT22;30340;52.004;5.908;2022-08-14T05:48:05;26.30;50.50
42037;DHT22;30340;52.004;5.908;2022-08-14T05:50:32;26.80;49.60
42037;DHT22;30340;52.004;5.908;2022-08-14T05:52:58;27.10;48.50
42037;DHT22;30340;52.004;5.908;2022-08-14T05:55:24;27.70;47.80
42037;DHT22;30340;52.004;5.908;2022-08-14T05:57:55;28.20;46.80
42037;DHT22;30340;52.004;5.908;2022-08-14T06:00:23;28.50;46.00
42037;DHT22;30340;52.004;5.908;2022-08-14T06:02:49;29.10;45.20
42037;DHT22;30340;52.004;5.908;2022-08-14T06:05:15;29.30;44.40
42037;DHT22;30340;52.004;5.908;2022-08-14T06:07:41;29.40;44.00
42037;DHT22;30340;52.004;5.908;2022-08-14T06:10:08;29.50;43.60
42037;DHT22;30340;52.004;5.908;2022-08-14T06:12:35;30.00;43.30
42037;DHT22;30340;52.004;5.908;2022-08-14T06:15:01;30.10;42.60
42037;DHT22;30340;52.004;5.908;2022-08-14T06:17:26;30.40;42.40
42037;DHT22;30340;52.004;5.908;2022-08-14T06:19:52;30.50;41.90
42037;DHT22;30340;52.004;5.908;2022-08-14T06:22:19;31.10;41.60
42037;DHT22;30340;52.004;5.908;2022-08-14T06:24:44;31.30;40.90
42037;DHT22;30340;52.004;5.908;2022-08-14T06:27:10;31.10;41.00
42037;DHT22;30340;52.004;5.908;2022-08-14T06:29:36;31.50;40.80
42037;DHT22;30340;52.004;5.908;2022-08-14T06:32:03;32.20;40.20
42037;DHT22;30340;52.004;5.908;2022-08-14T06:34:29;32.10;39.40
42037;DHT22;30340;52.004;5.908;2022-08-14T06:36:55;31.90;39.70
42037;DHT22;30340;52.004;5.908;2022-08-14T06:39:22;31.60;40.00
42037;DHT22;30340;52.004;5.908;2022-08-14T06:41:47;31.40;40.40
42037;DHT22;30340;52.004;5.908;2022-08-14T06:44:13;31.90;40.40
42037;DHT22;30340;52.004;5.908;2022-08-14T06:46:39;32.20;39.50
42037;DHT22;30340;52.004;5.908;2022-08-14T06:49:05;32.30;39.20
42037;DHT22;30340;52.004;5.908;2022-08-14T06:51:31;32.60;38.90
42037;DHT22;30340;52.004;5.908;2022-08-14T06:53:56;33.00;38.60
42037;DHT22;30340;52.004;5.908;2022-08-14T06:56:22;33.10;38.50
42037;DHT22;30340;52.004;5.908;2022-08-14T06:58:48;32.90;38.30
42037;DHT22;30340;52.004;5.908;2022-08-14T07:01:13;32.60;38.60
42037;DHT22;30340;52.004;5.908;2022-08-14T07:03:58;32.40;38.80
42037;DHT22;30340;52.004;5.908;2022-08-14T07:06:42;32.30;39.40
42037;DHT22;30340;52.004;5.908;2022-08-14T07:09:09;32.10;39.30
42037;DHT22;30340;52.004;5.908;2022-08-14T07:11:35;32.00;39.60
42037;DHT22;30340;52.004;5.908;2022-08-14T07:14:01;32.20;39.70
42037;DHT22;30340;52.004;5.908;2022-08-14T07:16:26;32.40;39.50
42037;DHT22;30340;52.004;5.908;2022-08-14T07:18:52;32.20;39.40
42037;DHT22;30340;52.004;5.908;2022-08-14T07:21:18;32.50;39.60
42037;DHT22;30340;52.004;5.908;2022-08-14T07:23:44;32.80;39.30
42037;DHT22;30340;52.004;5.908;2022-08-14T07:26:09;32.80;39.00
42037;DHT22;30340;52.004;5.908;2022-08-14T07:28:37;32.80;38.80
42037;DHT22;30340;52.004;5.908;2022-08-14T07:31:05;32.80;38.80
42037;DHT22;30340;52.004;5.908;2022-08-14T07:33:36;32.40;39.30
42037;DHT22;30340;52.004;5.908;2022-08-14T07:36:05;32.50;39.30
42037;DHT22;30340;52.004;5.908;2022-08-14T07:38:31;32.30;39.60
42037;DHT22;30340;52.004;5.908;2022-08-14T07:40:56;32.50;39.60
42037;DHT22;30340;52.004;5.908;2022-08-14T07:43:24;32.60;39.50
42037;DHT22;30340;52.004;5.908;2022-08-14T07:45:50;32.60;39.50
42037;DHT22;30340;52.004;5.908;2022-08-14T07:48:15;32.10;40.00
42037;DHT22;30340;52.004;5.908;2022-08-14T07:50:41;32.10;40.50
42037;DHT22;30340;52.004;5.908;2022-08-14T07:53:07;32.40;40.30
42037;DHT22;30340;52.004;5.908;2022-08-14T07:55:33;32.20;40.40
42037;DHT22;30340;52.004;5.908;2022-08-14T07:58:00;32.10;41.00
42037;DHT22;30340;52.004;5.908;2022-08-14T08:00:26;31.80;41.20
42037;DHT22;30340;52.004;5.908;2022-08-14T08:02:53;31.30;41.90
42037;DHT22;30340;52.004;5.908;2022-08-14T08:05:21;31.20;42.50
42037;DHT22;30340;52.004;5.908;2022-08-14T08:07:48;31.10;42.80
42037;DHT22;30340;52.004;5.908;2022-08-14T08:10:18;31.20;43.00
42037;DHT22;30340;52.004;5.908;2022-08-14T08:13:19;30.60;43.50
42037;DHT22;30340;52.004;5.908;2022-08-14T08:15:48;30.10;44.50
42037;DHT22;30340;52.004;5.908;2022-08-14T08:18:15;29.60;45.20
42037;DHT22;30340;52.004;5.908;2022-08-14T08:20:47;29.30;45.70
42037;DHT22;30340;52.004;5.908;2022-08-14T08:23:15;29.10;46.00
42037;DHT22;30340;52.004;5.908;2022-08-14T08:25:43;28.60;46.60
42037;DHT22;30340;52.004;5.908;2022-08-14T08:30:41;28.60;46.70
42037;DHT22;30340;52.004;5.908;2022-08-14T08:33:08;28.70;46.90
42037;DHT22;30340;52.004;5.908;2022-08-14T08:35:39;28.80;46.60
42037;DHT22;30340;52.004;5.908;2022-08-14T08:38:18;29.00;46.50
42037;DHT22;30340;52.004;5.908;2022-08-14T08:40:47;29.10;46.30
42037;DHT22;30340;52.004;5.908;2022-08-14T08:43:24;29.10;46.20
42037;DHT22;30340;52.004;5.908;2022-08-14T08:48:27;29.10;46.20
42037;DHT22;30340;52.004;5.908;2022-08-14T08:50:56;29.10;46.20
42037;DHT22;30340;52.004;5.908;2022-08-14T08:53:28;29.20;46.20
42037;DHT22;30340;52.004;5.908;2022-08-14T08:55:53;29.00;46.40
42037;DHT22;30340;52.004;5.908;2022-08-14T08:58:20;28.90;46.60
42037;DHT22;30340;52.004;5.908;2022-08-14T09:00:49;29.00;46.60
42037;DHT22;30340;52.004;5.908;2022-08-14T09:03:18;29.10;46.40
42037;DHT22;30340;52.004;5.908;2022-08-14T09:05:59;29.40;46.20
42037;DHT22;30340;52.004;5.908;2022-08-14T09:08:35;29.60;45.90
42037;DHT22;30340;52.004;5.908;2022-08-14T09:11:04;29.80;45.60
42037;DHT22;30340;52.004;5.908;2022-08-14T09:13:31;30.00;45.30
42037;DHT22;30340;52.004;5.908;2022-08-14T09:15:57;30.00;45.10
42037;DHT22;30340;52.004;5.908;2022-08-14T09:18:24;30.00;45.00
42037;DHT22;30340;52.004;5.908;2022-08-14T09:20:53;30.10;44.70
42037;DHT22;30340;52.004;5.908;2022-08-14T09:23:19;30.20;44.60
42037;DHT22;30340;52.004;5.908;2022-08-14T09:25:47;30.40;44.50
42037;DHT22;30340;52.004;5.908;2022-08-14T09:28:15;30.50;43.80
42037;DHT22;30340;52.004;5.908;2022-08-14T09:30:46;30.40;43.60
42037;DHT22;30340;52.004;5.908;2022-08-14T09:33:46;30.50;43.60
42037;DHT22;30340;52.004;5.908;2022-08-14T09:36:39;30.50;43.80
42037;DHT22;30340;52.004;5.908;2022-08-14T09:39:43;30.60;43.70
42037;DHT22;30340;52.004;5.908;2022-08-14T09:42:34;30.40;43.00
42037;DHT22;30340;52.004;5.908;2022-08-14T09:45:11;30.40;43.30
42037;DHT22;30340;52.004;5.908;2022-08-14T09:47:56;30.50;43.20
42037;DHT22;30340;52.004;5.908;2022-08-14T09:50:30;30.60;43.00
42037;DHT22;30340;52.004;5.908;2022-08-14T09:53:03;30.60;42.70
42037;DHT22;30340;52.004;5.908;2022-08-14T09:55:31;30.50;42.60
42037;DHT22;30340;52.004;5.908;2022-08-14T09:58:11;30.60;42.70
42037;DHT22;30340;52.004;5.908;2022-08-14T10:03:10;30.30;42.50
42037;DHT22;30340;52.004;5.908;2022-08-14T10:05:37;30.30;42.60
42037;DHT22;30340;52.004;5.908;2022-08-14T10:08:04;30.30;42.50
42037;DHT22;30340;52.004;5.908;2022-08-14T10:10:38;30.30;42.50
42037;DHT22;30340;52.004;5.908;2022-08-14T10:13:19;30.30;42.80
42037;DHT22;30340;52.004;5.908;2022-08-14T10:15:45;30.40;42.80
42037;DHT22;30340;52.004;5.908;2022-08-14T10:18:14;30.50;42.50
42037;DHT22;30340;52.004;5.908;2022-08-14T10:20:43;30.70;42.10
42037;DHT22;30340;52.004;5.908;2022-08-14T10:23:12;30.60;42.00
42037;DHT22;30340;52.004;5.908;2022-08-14T10:25:40;30.70;42.00
42037;DHT22;30340;52.004;5.908;2022-08-14T10:28:05;30.50;41.80
42037;DHT22;30340;52.004;5.908;2022-08-14T10:30:34;30.50;42.10
42037;DHT22;30340;52.004;5.908;2022-08-14T10:33:02;30.50;41.80
42037;DHT22;30340;52.004;5.908;2022-08-14T10:35:41;30.60;41.80
42037;DHT22;30340;52.004;5.908;2022-08-14T10:38:07;30.70;41.60
42037;DHT22;30340;52.004;5.908;2022-08-14T10:40:33;30.80;41.40
42037;DHT22;30340;52.004;5.908;2022-08-14T10:42:58;30.90;41.30
42037;DHT22;30340;52.004;5.908;2022-08-14T10:45:33;30.90;41.00
42037;DHT22;30340;52.004;5.908;2022-08-14T10:47:59;31.00;40.70
42037;DHT22;30340;52.004;5.908;2022-08-14T10:50:34;31.10;40.50
42037;DHT22;30340;52.004;5.908;2022-08-14T10:53:00;31.30;40.10
42037;DHT22;30340;52.004;5.908;2022-08-14T10:55:37;31.50;39.90
42037;DHT22;30340;52.004;5.908;2022-08-14T10:58:07;31.50;40.60
42037;DHT22;30340;52.004;5.908;2022-08-14T11:00:40;31.70;40.10
42037;DHT22;30340;52.004;5.908;2022-08-14T11:03:08;31.60;38.90
42037;DHT22;30340;52.004;5.908;2022-08-14T11:05:44;31.40;39.00
42037;DHT22;30340;52.004;5.908;2022-08-14T11:08:11;31.40;39.00
42037;DHT22;30340;52.004;5.908;2022-08-14T11:10:47;31.40;39.00
42037;DHT22;30340;52.004;5.908;2022-08-14T11:13:18;31.50;39.00
42037;DHT22;30340;52.004;5.908;2022-08-14T11:15:46;31.70;38.80
42037;DHT22;30340;52.004;5.908;2022-08-14T11:18:13;31.80;38.60
42037;DHT22;30340;52.004;5.908;2022-08-14T11:20:50;32.00;38.40
42037;DHT22;30340;52.004;5.908;2022-08-14T11:23:20;32.10;38.30
42037;DHT22;30340;52.004;5.908;2022-08-14T11:25:47;32.10;38.30
42037;DHT22;30340;52.004;5.908;2022-08-14T11:28:14;32.00;37.80
42037;DHT22;30340;52.004;5.908;2022-08-14T11:30:46;32.00;37.60
42037;DHT22;30340;52.004;5.908;2022-08-14T11:33:12;32.00;37.60
42037;DHT22;30340;52.004;5.908;2022-08-14T11:35:38;32.10;37.70
42037;DHT22;30340;52.004;5.908;2022-08-14T11:38:06;32.30;37.50
42037;DHT22;30340;52.004;5.908;2022-08-14T11:40:34;32.30;37.50
42037;DHT22;30340;52.004;5.908;2022-08-14T11:43:02;32.50;37.60
42037;DHT22;30340;52.004;5.908;2022-08-14T11:45:33;32.50;37.20
42037;DHT22;30340;52.004;5.908;2022-08-14T11:48:00;32.60;37.20
42037;DHT22;30340;52.004;5.908;2022-08-14T11:50:28;32.60;36.90
42037;DHT22;30340;52.004;5.908;2022-08-14T11:52:55;32.60;36.90
42037;DHT22;30340;52.004;5.908;2022-08-14T11:55:23;32.80;37.00
42037;DHT22;30340;52.004;5.908;2022-08-14T11:57:59;33.00;36.30
42037;DHT22;30340;52.004;5.908;2022-08-14T12:00:27;32.90;35.80
42037;DHT22;30340;52.004;5.908;2022-08-14T12:02:54;32.90;35.50
42037;DHT22;30340;52.004;5.908;2022-08-14T12:05:33;33.00;35.40
42037;DHT22;30340;52.004;5.908;2022-08-14T12:08:00;33.30;35.40
42037;DHT22;30340;52.004;5.908;2022-08-14T12:10:26;33.60;35.10
42037;DHT22;30340;52.004;5.908;2022-08-14T12:12:54;33.70;34.60
42037;DHT22;30340;52.004;5.908;2022-08-14T12:15:33;33.50;34.90
42037;DHT22;30340;52.004;5.908;2022-08-14T12:18:00;33.40;35.20
42037;DHT22;30340;52.004;5.908;2022-08-14T12:20:31;33.60;35.30
42037;DHT22;30340;52.004;5.908;2022-08-14T12:22:58;33.70;34.60
42037;DHT22;30340;52.004;5.908;2022-08-14T12:25:25;33.70;34.70
42037;DHT22;30340;52.004;5.908;2022-08-14T12:27:52;33.80;34.20
42037;DHT22;30340;52.004;5.908;2022-08-14T12:30:33;34.00;34.00
42037;DHT22;30340;52.004;5.908;2022-08-14T12:33:00;34.20;33.50
42037;DHT22;30340;52.004;5.908;2022-08-14T12:35:40;34.20;33.50
42037;DHT22;30340;52.004;5.908;2022-08-14T12:38:07;34.30;32.80
42037;DHT22;30340;52.004;5.908;2022-08-14T12:40:45;34.30;32.80
42037;DHT22;30340;52.004;5.908;2022-08-14T12:43:11;34.40;32.60
42037;DHT22;30340;52.004;5.908;2022-08-14T12:45:36;34.30;33.00
42037;DHT22;30340;52.004;5.908;2022-08-14T12:48:04;34.40;33.20
42037;DHT22;30340;52.004;5.908;2022-08-14T12:50:38;34.30;33.30
42037;DHT22;30340;52.004;5.908;2022-08-14T12:53:06;34.40;33.60
42037;DHT22;30340;52.004;5.908;2022-08-14T12:55:32;34.70;33.60
42037;DHT22;30340;52.004;5.908;2022-08-14T12:58:00;34.60;33.20
42037;DHT22;30340;52.004;5.908;2022-08-14T13:00:30;34.50;33.20
42037;DHT22;30340;52.004;5.908;2022-08-14T13:02:56;34.30;33.10
42037;DHT22;30340;52.004;5.908;2022-08-14T13:05:27;34.30;33.30
42037;DHT22;30340;52.004;5.908;2022-08-14T13:07:55;34.30;33.30
42037;DHT22;30340;52.004;5.908;2022-08-14T13:10:22;34.20;33.30
42037;DHT22;30340;52.004;5.908;2022-08-14T13:12:50;34.00;33.20
42037;DHT22;30340;52.004;5.908;2022-08-14T13:15:17;34.00;33.60
42037;DHT22;30340;52.004;5.908;2022-08-14T13:17:46;34.10;33.30
42037;DHT22;30340;52.004;5.908;2022-08-14T13:20:13;34.00;33.30
42037;DHT22;30340;52.004;5.908;2022-08-14T13:22:41;33.80;33.40
42037;DHT22;30340;52.004;5.908;2022-08-14T13:25:11;34.10;33.70
42037;DHT22;30340;52.004;5.908;2022-08-14T13:27:38;34.40;33.50
42037;DHT22;30340;52.004;5.908;2022-08-14T13:30:07;34.70;33.30
42037;DHT22;30340;52.004;5.908;2022-08-14T13:32:33;34.70;32.80
42037;DHT22;30340;52.004;5.908;2022-08-14T13:35:07;34.60;32.60
42037;DHT22;30340;52.004;5.908;2022-08-14T13:37:33;34.70;32.80
42037;DHT22;30340;52.004;5.908;2022-08-14T13:39:58;35.00;32.60
42037;DHT22;30340;52.004;5.908;2022-08-14T13:42:25;35.10;32.40
42037;DHT22;30340;52.004;5.908;2022-08-14T13:44:55;35.10;32.00
42037;DHT22;30340;52.004;5.908;2022-08-14T13:47:24;35.10;32.10
42037;DHT22;30340;52.004;5.908;2022-08-14T13:49:55;35.00;31.70
42037;DHT22;30340;52.004;5.908;2022-08-14T13:52:23;35.00;31.80
42037;DHT22;30340;52.004;5.908;2022-08-14T13:54:53;35.00;31.80
42037;DHT22;30340;52.004;5.908;2022-08-14T13:57:19;34.90;31.70
42037;DHT22;30340;52.004;5.908;2022-08-14T13:59:47;34.90;31.90
42037;DHT22;30340;52.004;5.908;2022-08-14T14:02:15;34.80;31.70
42037;DHT22;30340;52.004;5.908;2022-08-14T14:04:45;34.90;32.00
42037;DHT22;30340;52.004;5.908;2022-08-14T14:07:12;35.20;31.70
42037;DHT22;30340;52.004;5.908;2022-08-14T14:09:41;35.20;31.50
42037;DHT22;30340;52.004;5.908;2022-08-14T14:12:08;35.20;31.50
42037;DHT22;30340;52.004;5.908;2022-08-14T14:14:35;35.40;31.60
42037;DHT22;30340;52.004;5.908;2022-08-14T14:17:09;35.60;31.10
42037;DHT22;30340;52.004;5.908;2022-08-14T14:19:36;35.60;30.90
42037;DHT22;30340;52.004;5.908;2022-08-14T14:22:03;35.70;31.00
42037;DHT22;30340;52.004;5.908;2022-08-14T14:24:31;35.70;30.90
42037;DHT22;30340;52.004;5.908;2022-08-14T14:27:00;35.80;30.70
42037;DHT22;30340;52.004;5.908;2022-08-14T14:29:29;35.60;30.40
42037;DHT22;30340;52.004;5.908;2022-08-14T14:31:58;35.30;30.40
42037;DHT22;30340;52.004;5.908;2022-08-14T14:34:26;35.10;30.80
42037;DHT22;30340;52.004;5.908;2022-08-14T14:36:52;35.10;31.20
42037;DHT22;30340;52.004;5.908;2022-08-14T14:39:24;35.30;31.10
42037;DHT22;30340;52.004;5.908;2022-08-14T14:41:55;35.60;30.90
42037;DHT22;30340;52.004;5.908;2022-08-14T14:44:26;35.60;30.90
42037;DHT22;30340;52.004;5.908;2022-08-14T14:46:55;35.40;31.10
42037;DHT22;30340;52.004;5.908;2022-08-14T14:49:26;35.00;31.40
42037;DHT22;30340;52.004;5.908;2022-08-14T14:51:51;34.80;31.80
42037;DHT22;30340;52.004;5.908;2022-08-14T14:54:19;34.60;31.90
42037;DHT22;30340;52.004;5.908;2022-08-14T14:56:47;34.30;32.00
42037;DHT22;30340;52.004;5.908;2022-08-14T14:59:13;34.20;32.20
42037;DHT22;30340;52.004;5.908;2022-08-14T15:01:42;34.10;32.30
42037;DHT22;30340;52.004;5.908;2022-08-14T15:04:08;34.00;32.40
42037;DHT22;30340;52.004;5.908;2022-08-14T15:06:34;33.80;32.40
42037;DHT22;30340;52.004;5.908;2022-08-14T15:09:00;33.70;32.70
42037;DHT22;30340;52.004;5.908;2022-08-14T15:11:27;33.70;32.70
42037;DHT22;30340;52.004;5.908;2022-08-14T15:13:53;33.90;32.70
42037;DHT22;30340;52.004;5.908;2022-08-14T15:16:18;34.00;32.50
42037;DHT22;30340;52.004;5.908;2022-08-14T15:18:44;34.20;32.40
42037;DHT22;30340;52.004;5.908;2022-08-14T15:21:10;34.20;32.20
42037;DHT22;30340;52.004;5.908;2022-08-14T15:23:36;34.40;32.30
42037;DHT22;30340;52.004;5.908;2022-08-14T15:26:02;34.40;32.00
42037;DHT22;30340;52.004;5.908;2022-08-14T15:28:28;34.20;32.00
42037;DHT22;30340;52.004;5.908;2022-08-14T15:30:54;34.10;32.00
42037;DHT22;30340;52.004;5.908;2022-08-14T15:33:20;34.00;32.10
42037;DHT22;30340;52.004;5.908;2022-08-14T15:36:05;34.00;33.00
42037;DHT22;30340;52.004;5.908;2022-08-14T15:38:31;34.00;32.30
42037;DHT22;30340;52.004;5.908;2022-08-14T15:40:57;33.90;32.10
42037;DHT22;30340;52.004;5.908;2022-08-14T15:43:26;33.90;32.10
42037;DHT22;30340;52.004;5.908;2022-08-14T15:45:53;33.90;32.20